sensor_id;sensor_type;location;lat;lon;timestamp;pressure;altitude;pressure_sealevel;temperature;humidity
26487;BME280;14425;56.136;40.360;2022-09-09T00:06:28;100133.59;;;8.71;88.76
26487;BME280;14425;56.136;40.360;2022-09-09T00:11:24;100131.09;;;9.24;82.82
26487;BME280;14425;56.136;40.360;2022-09-09T00:13:52;100127.34;;;9.18;81.45
26487;BME280;14425;56.136;40.360;2022-09-09T00:16:19;100128.59;;;9.26;80.93
26487;BME280;14425;56.136;40.360;2022-09-09T00:18:52;100139.34;;;9.53;78.76
26487;BME280;14425;56.136;40.360;2022-09-09T00:21:21;100138.31;;;9.50;77.77
26487;BME280;14425;56.136;40.360;2022-09-09T00:23:51;100140.66;;;9.27;79.36
26487;BME280;14425;56.136;40.360;2022-09-09T00:28:52;100144.84;;;9.25;80.25
26487;BME280;14425;56.136;40.360;2022-09-09T00:31:26;100135.09;;;9.01;82.09
26487;BME280;14425;56.136;40.360;2022-09-09T00:33:52;100147.91;;;8.65;86.57
26487;BME280;14425;56.136;40.360;2022-09-09T00:36:18;100147.94;;;9.00;82.64
26487;BME280;14425;56.136;40.360;2022-09-09T00:38:52;100141.25;;;9.03;81.80
26487;BME280;14425;56.136;40.360;2022-09-09T00:41:22;100144.72;;;8.87;83.79
26487;BME280;14425;56.136;40.360;2022-09-09T00:44:00;100151.59;;;9.05;82.67
26487;BME280;14425;56.136;40.360;2022-09-09T00:49:19;100146.28;;;9.36;79.43
26487;BME280;14425;56.136;40.360;2022-09-09T00:52:02;100148.81;;;9.54;78.14
26487;BME280;14425;56.136;40.360;2022-09-09T00:59:47;100162.31;;;8.80;83.35
26487;BME280;14425;56.136;40.360;2022-09-09T01:02:16;100160.72;;;9.16;80.75
26487;BME280;14425;56.136;40.360;2022-09-09T01:04:43;100154.47;;;9.29;79.30
26487;BME280;14425;56.136;40.360;2022-09-09T01:07:27;100166.16;;;8.88;82.37
26487;BME280;14425;56.136;40.360;2022-09-09T01:09:56;100169.44;;;8.67;83.57
26487;BME280;14425;56.136;40.360;2022-09-09T01:12:28;100169.84;;;8.75;84.07
26487;BME280;14425;56.136;40.360;2022-09-09T01:15:03;100172.06;;;8.85;83.11
26487;BME280;14425;56.136;40.360;2022-09-09T01:17:34;100161.22;;;8.58;85.08
26487;BME280;14425;56.136;40.360;2022-09-09T01:28:02;100175.09;;;8.12;91.77
26487;BME280;14425;56.136;40.360;2022-09-09T01:30:29;100180.34;;;7.83;96.09
26487;BME280;14425;56.136;40.360;2022-09-09T01:32:56;100178.16;;;8.38;90.42
26487;BME280;14425;56.136;40.360;2022-09-09T01:37:52;100181.72;;;8.40;89.74
26487;BME280;14425;56.136;40.360;2022-09-09T01:40:17;100195.66;;;8.12;91.77
26487;BME280;14425;56.136;40.360;2022-09-09T01:42:43;100191.31;;;8.11;92.09
26487;BME280;14425;56.136;40.360;2022-09-09T01:45:08;100197.59;;;8.33;90.88
26487;BME280;14425;56.136;40.360;2022-09-09T01:47:34;100195.03;;;8.33;90.65
26487;BME280;14425;56.136;40.360;2022-09-09T01:50:00;100198.22;;;8.60;87.22
26487;BME280;14425;56.136;40.360;2022-09-09T01:52:26;100208.03;;;8.20;90.70
26487;BME280;14425;56.136;40.360;2022-09-09T01:54:52;100207.09;;;7.71;95.48
26487;BME280;14425;56.136;40.360;2022-09-09T01:57:19;100207.50;;;7.94;94.85
26487;BME280;14425;56.136;40.360;2022-09-09T02:00:00;100199.94;;;8.28;90.02
26487;BME280;14425;56.136;40.360;2022-09-09T02:02:49;100214.81;;;8.03;91.46
26487;BME280;14425;56.136;40.360;2022-09-09T02:07:50;100216.97;;;7.49;97.67
26487;BME280;14425;56.136;40.360;2022-09-09T02:10:20;100217.56;;;7.74;95.74
26487;BME280;14425;56.136;40.360;2022-09-09T02:12:50;100221.66;;;7.41;97.64
26487;BME280;14425;56.136;40.360;2022-09-09T02:15:26;100221.38;;;7.51;98.28
26487;BME280;14425;56.136;40.360;2022-09-09T02:17:53;100221.69;;;7.87;95.36
26487;BME280;14425;56.136;40.360;2022-09-09T02:20:21;100230.28;;;8.19;90.67
26487;BME280;14425;56.136;40.360;2022-09-09T02:22:50;100227.28;;;8.11;90.22
26487;BME280;14425;56.136;40.360;2022-09-09T02:25:17;100236.19;;;7.87;92.86
26487;BME280;14425;56.136;40.360;2022-09-09T02:27:44;100229.94;;;7.67;94.04
26487;BME280;14425;56.136;40.360;2022-09-09T02:30:11;100241.38;;;7.57;95.26
26487;BME280;14425;56.136;40.360;2022-09-09T02:32:36;100236.41;;;7.60;95.28
26487;BME280;14425;56.136;40.360;2022-09-09T02:35:15;100237.91;;;7.71;95.48
26487;BME280;14425;56.136;40.360;2022-09-09T02:37:42;100233.34;;;7.66;95.72
26487;BME280;14425;56.136;40.360;2022-09-09T02:40:11;100241.06;;;7.51;97.43
26487;BME280;14425;56.136;40.360;2022-09-09T02:42:40;100233.66;;;7.72;96.17
26487;BME280;14425;56.136;40.360;2022-09-09T02:45:06;100241.47;;;6.99;100.00
26487;BME280;14425;56.136;40.360;2022-09-09T02:55:16;100257.97;;;7.32;98.64
26487;BME280;14425;56.136;40.360;2022-09-09T02:57:43;100271.00;;;7.07;100.00
26487;BME280;14425;56.136;40.360;2022-09-09T03:00:12;100252.91;;;7.19;100.00
26487;BME280;14425;56.136;40.360;2022-09-09T03:02:38;100269.78;;;7.45;98.71
26487;BME280;14425;56.136;40.360;2022-09-09T03:05:04;100270.59;;;7.29;100.00
26487;BME280;14425;56.136;40.360;2022-09-09T03:07:30;100280.69;;;7.26;100.00
26487;BME280;14425;56.136;40.360;2022-09-09T03:09:55;100278.50;;;7.62;98.13
26487;BME280;14425;56.136;40.360;2022-09-09T03:12:20;100275.91;;;7.77;95.32
26487;BME280;14425;56.136;40.360;2022-09-09T03:14:46;100283.53;;;7.61;96.22
26487;BME280;14425;56.136;40.360;2022-09-09T03:17:11;100276.66;;;7.91;94.62
26487;BME280;14425;56.136;40.360;2022-09-09T03:19:37;100284.75;;;7.82;93.67
26487;BME280;14425;56.136;40.360;2022-09-09T03:22:02;100276.88;;;7.79;93.99
26487;BME280;14425;56.136;40.360;2022-09-09T03:24:29;100282.75;;;8.39;89.48
26487;BME280;14425;56.136;40.360;2022-09-09T03:26:55;100291.13;;;8.51;86.37
26487;BME280;14425;56.136;40.360;2022-09-09T03:29:21;100301.47;;;8.05;88.83
26487;BME280;14425;56.136;40.360;2022-09-09T03:31:46;100296.53;;;8.56;85.65
26487;BME280;14425;56.136;40.360;2022-09-09T03:34:12;100283.69;;;8.41;85.63
26487;BME280;14425;56.136;40.360;2022-09-09T03:36:40;100297.78;;;8.17;87.92
26487;BME280;14425;56.136;40.360;2022-09-09T03:39:06;100299.47;;;8.16;88.53
26487;BME280;14425;56.136;40.360;2022-09-09T03:41:32;100304.00;;;8.20;88.29
26487;BME280;14425;56.136;40.360;2022-09-09T03:43:57;100290.75;;;8.44;86.27
26487;BME280;14425;56.136;40.360;2022-09-09T03:46:23;100296.47;;;8.71;83.67
26487;BME280;14425;56.136;40.360;2022-09-09T03:48:50;100301.56;;;8.23;86.24
26487;BME280;14425;56.136;40.360;2022-09-09T03:51:17;100304.84;;;8.67;83.59
26487;BME280;14425;56.136;40.360;2022-09-09T03:53:43;100323.06;;;8.09;88.26
26487;BME280;14425;56.136;40.360;2022-09-09T03:56:09;100322.72;;;7.88;90.81
26487;BME280;14425;56.136;40.360;2022-09-09T03:58:34;100314.56;;;7.65;93.19
26487;BME280;14425;56.136;40.360;2022-09-09T04:01:01;100314.75;;;7.68;93.93
26487;BME280;14425;56.136;40.360;2022-09-09T04:03:27;100321.16;;;8.21;89.57
26487;BME280;14425;56.136;40.360;2022-09-09T04:05:53;100324.16;;;8.29;88.17
26487;BME280;14425;56.136;40.360;2022-09-09T04:08:19;100326.59;;;8.42;86.75
26487;BME280;14425;56.136;40.360;2022-09-09T04:10:45;100320.25;;;8.67;83.32
26487;BME280;14425;56.136;40.360;2022-09-09T04:13:12;100322.81;;;8.50;85.40
26487;BME280;14425;56.136;40.360;2022-09-09T04:15:40;100328.66;;;8.33;86.62
26487;BME280;14425;56.136;40.360;2022-09-09T04:18:05;100328.38;;;8.75;83.56
26487;BME280;14425;56.136;40.360;2022-09-09T04:20:31;100328.34;;;8.58;84.67
26487;BME280;14425;56.136;40.360;2022-09-09T04:22:56;100325.25;;;8.64;85.34
26487;BME280;14425;56.136;40.360;2022-09-09T04:25:22;100339.28;;;8.39;86.78
26487;BME280;14425;56.136;40.360;2022-09-09T04:27:47;100339.44;;;8.57;86.65
26487;BME280;14425;56.136;40.360;2022-09-09T04:30:13;100334.25;;;8.72;85.04
26487;BME280;14425;56.136;40.360;2022-09-09T04:32:38;100336.28;;;8.46;86.04
26487;BME280;14425;56.136;40.360;2022-09-09T04:35:04;100345.50;;;8.28;87.80
26487;BME280;14425;56.136;40.360;2022-09-09T04:37:29;100341.78;;;8.38;87.01
26487;BME280;14425;56.136;40.360;2022-09-09T04:39:55;100332.44;;;8.55;85.26
26487;BME280;14425;56.136;40.360;2022-09-09T04:42:21;100340.59;;;8.79;84.34
26487;BME280;14425;56.136;40.360;2022-09-09T04:44:46;100344.16;;;8.49;85.38
26487;BME280;14425;56.136;40.360;2022-09-09T04:47:12;100345.16;;;8.68;84.63
26487;BME280;14425;56.136;40.360;2022-09-09T04:49:38;100347.13;;;8.88;82.84
26487;BME280;14425;56.136;40.360;2022-09-09T04:52:04;100355.16;;;8.95;82.43
26487;BME280;14425;56.136;40.360;2022-09-09T04:54:29;100354.44;;;9.14;80.15
26487;BME280;14425;56.136;40.360;2022-09-09T04:56:55;100353.38;;;8.77;83.64
26487;BME280;14425;56.136;40.360;2022-09-09T04:59:20;100362.72;;;8.92;83.51
26487;BME280;14425;56.136;40.360;2022-09-09T05:01:47;100349.63;;;9.36;80.54
26487;BME280;14425;56.136;40.360;2022-09-09T05:04:12;100357.72;;;9.44;79.88
26487;BME280;14425;56.136;40.360;2022-09-09T05:06:38;100357.56;;;9.24;80.11
26487;BME280;14425;56.136;40.360;2022-09-09T05:09:03;100363.03;;;8.98;81.93
26487;BME280;14425;56.136;40.360;2022-09-09T05:11:29;100362.25;;;9.15;82.14
26487;BME280;14425;56.136;40.360;2022-09-09T05:13:55;100362.75;;;9.08;81.68
26487;BME280;14425;56.136;40.360;2022-09-09T05:16:23;100360.50;;;9.65;78.56
26487;BME280;14425;56.136;40.360;2022-09-09T05:18:49;100358.34;;;9.91;76.88
26487;BME280;14425;56.136;40.360;2022-09-09T05:21:16;100365.00;;;10.04;74.75
26487;BME280;14425;56.136;40.360;2022-09-09T05:23:42;100358.22;;;10.06;73.71
26487;BME280;14425;56.136;40.360;2022-09-09T05:26:09;100354.84;;;10.25;73.33
26487;BME280;14425;56.136;40.360;2022-09-09T05:28:36;100360.56;;;10.19;72.95
26487;BME280;14425;56.136;40.360;2022-09-09T05:31:05;100361.56;;;9.52;76.94
26487;BME280;14425;56.136;40.360;2022-09-09T05:33:36;100369.72;;;9.43;78.70
26487;BME280;14425;56.136;40.360;2022-09-09T05:36:03;100370.19;;;9.87;75.56
26487;BME280;14425;56.136;40.360;2022-09-09T05:38:29;100368.25;;;10.35;73.31
26487;BME280;14425;56.136;40.360;2022-09-09T05:40:55;100367.22;;;10.68;69.43
26487;BME280;14425;56.136;40.360;2022-09-09T05:43:22;100372.84;;;10.79;69.14
26487;BME280;14425;56.136;40.360;2022-09-09T05:45:48;100371.66;;;10.34;70.53
26487;BME280;14425;56.136;40.360;2022-09-09T05:48:14;100382.34;;;9.90;72.34
26487;BME280;14425;56.136;40.360;2022-09-09T05:50:43;100379.41;;;10.00;72.23
26487;BME280;14425;56.136;40.360;2022-09-09T05:53:09;100384.06;;;10.25;71.09
26487;BME280;14425;56.136;40.360;2022-09-09T05:55:35;100389.16;;;10.24;72.21
26487;BME280;14425;56.136;40.360;2022-09-09T05:58:01;100387.19;;;10.54;69.92
26487;BME280;14425;56.136;40.360;2022-09-09T06:00:26;100394.19;;;10.39;70.81
26487;BME280;14425;56.136;40.360;2022-09-09T06:02:52;100393.03;;;9.63;72.89
26487;BME280;14425;56.136;40.360;2022-09-09T06:05:19;100397.66;;;8.88;80.70
26487;BME280;14425;56.136;40.360;2022-09-09T06:07:45;100392.91;;;8.79;83.99
26487;BME280;14425;56.136;40.360;2022-09-09T06:10:10;100404.34;;;8.84;83.46
26487;BME280;14425;56.136;40.360;2022-09-09T06:12:38;100397.59;;;9.69;78.12
26487;BME280;14425;56.136;40.360;2022-09-09T06:15:04;100399.78;;;11.03;75.69
26487;BME280;14425;56.136;40.360;2022-09-09T06:17:30;100395.09;;;11.34;70.06
26487;BME280;14425;56.136;40.360;2022-09-09T06:19:55;100401.22;;;11.55;67.15
26487;BME280;14425;56.136;40.360;2022-09-09T06:22:22;100389.34;;;11.99;65.25
26487;BME280;14425;56.136;40.360;2022-09-09T06:24:47;100393.66;;;11.79;63.30
26487;BME280;14425;56.136;40.360;2022-09-09T06:27:12;100400.47;;;11.77;62.02
26487;BME280;14425;56.136;40.360;2022-09-09T06:29:38;100400.16;;;12.10;59.62
26487;BME280;14425;56.136;40.360;2022-09-09T06:32:04;100396.84;;;12.14;60.07
26487;BME280;14425;56.136;40.360;2022-09-09T06:34:29;100396.72;;;12.11;58.92
26487;BME280;14425;56.136;40.360;2022-09-09T06:36:55;100396.03;;;12.15;56.64
26487;BME280;14425;56.136;40.360;2022-09-09T06:39:22;100401.28;;;12.17;56.09
26487;BME280;14425;56.136;40.360;2022-09-09T06:41:51;100387.97;;;12.51;55.41
26487;BME280;14425;56.136;40.360;2022-09-09T06:44:18;100384.63;;;13.46;53.56
26487;BME280;14425;56.136;40.360;2022-09-09T06:46:44;100385.47;;;13.22;53.35
26487;BME280;14425;56.136;40.360;2022-09-09T06:49:12;100390.31;;;13.36;52.70
26487;BME280;14425;56.136;40.360;2022-09-09T06:51:38;100393.66;;;12.43;52.18
26487;BME280;14425;56.136;40.360;2022-09-09T06:54:10;100392.69;;;12.84;50.42
26487;BME280;14425;56.136;40.360;2022-09-09T06:56:36;100394.69;;;12.69;50.33
26487;BME280;14425;56.136;40.360;2022-09-09T06:59:03;100403.91;;;11.97;52.45
26487;BME280;14425;56.136;40.360;2022-09-09T07:01:30;100403.75;;;11.15;52.80
26487;BME280;14425;56.136;40.360;2022-09-09T07:03:56;100408.88;;;10.95;53.45
26487;BME280;14425;56.136;40.360;2022-09-09T07:06:43;100417.63;;;10.61;54.27
26487;BME280;14425;56.136;40.360;2022-09-09T07:09:09;100423.59;;;10.60;54.50
26487;BME280;14425;56.136;40.360;2022-09-09T07:11:41;100422.72;;;10.42;55.66
26487;BME280;14425;56.136;40.360;2022-09-09T07:14:07;100421.31;;;10.84;54.91
26487;BME280;14425;56.136;40.360;2022-09-09T07:16:34;100419.59;;;11.22;54.86
26487;BME280;14425;56.136;40.360;2022-09-09T07:19:02;100416.41;;;11.88;53.04
26487;BME280;14425;56.136;40.360;2022-09-09T07:21:29;100416.63;;;11.93;50.68
26487;BME280;14425;56.136;40.360;2022-09-09T07:23:55;100424.66;;;11.79;51.60
26487;BME280;14425;56.136;40.360;2022-09-09T07:26:22;100409.84;;;13.27;48.66
26487;BME280;14425;56.136;40.360;2022-09-09T07:28:47;100408.91;;;13.25;48.43
26487;BME280;14425;56.136;40.360;2022-09-09T07:31:23;100410.31;;;12.49;49.49
26487;BME280;14425;56.136;40.360;2022-09-09T07:33:49;100424.78;;;11.82;50.74
26487;BME280;14425;56.136;40.360;2022-09-09T07:36:19;100421.00;;;11.55;51.66
26487;BME280;14425;56.136;40.360;2022-09-09T07:38:50;100429.78;;;11.19;52.87
26487;BME280;14425;56.136;40.360;2022-09-09T07:41:17;100427.81;;;11.33;52.38
26487;BME280;14425;56.136;40.360;2022-09-09T07:43:44;100430.78;;;11.62;52.17
26487;BME280;14425;56.136;40.360;2022-09-09T07:46:10;100426.75;;;12.08;50.61
26487;BME280;14425;56.136;40.360;2022-09-09T07:48:37;100428.75;;;11.94;52.21
26487;BME280;14425;56.136;40.360;2022-09-09T07:51:25;100442.47;;;11.73;52.66
26487;BME280;14425;56.136;40.360;2022-09-09T07:53:51;100437.72;;;11.43;52.48
26487;BME280;14425;56.136;40.360;2022-09-09T07:56:17;100447.19;;;11.43;53.47
26487;BME280;14425;56.136;40.360;2022-09-09T07:58:46;100439.50;;;11.25;53.62
26487;BME280;14425;56.136;40.360;2022-09-09T08:01:14;100454.50;;;11.34;53.44
26487;BME280;14425;56.136;40.360;2022-09-09T08:03:44;100451.13;;;10.97;54.74
26487;BME280;14425;56.136;40.360;2022-09-09T08:06:10;100457.13;;;10.96;54.61
26487;BME280;14425;56.136;40.360;2022-09-09T08:08:36;100457.91;;;10.77;54.71
26487;BME280;14425;56.136;40.360;2022-09-09T08:11:06;100462.97;;;10.74;55.76
26487;BME280;14425;56.136;40.360;2022-09-09T08:13:33;100464.28;;;10.66;55.99
26487;BME280;14425;56.136;40.360;2022-09-09T08:16:08;100461.09;;;10.71;56.38
26487;BME280;14425;56.136;40.360;2022-09-09T08:18:37;100459.00;;;11.00;55.21
26487;BME280;14425;56.136;40.360;2022-09-09T08:21:11;100460.00;;;11.22;55.24
26487;BME280;14425;56.136;40.360;2022-09-09T08:23:38;100466.69;;;11.56;54.50
26487;BME280;14425;56.136;40.360;2022-09-09T08:26:11;100458.25;;;11.99;51.84
26487;BME280;14425;56.136;40.360;2022-09-09T08:28:37;100463.19;;;12.14;51.71
26487;BME280;14425;56.136;40.360;2022-09-09T08:33:34;100458.63;;;12.08;53.43
26487;BME280;14425;56.136;40.360;2022-09-09T08:36:01;100453.16;;;12.86;51.74
26487;BME280;14425;56.136;40.360;2022-09-09T08:38:27;100452.97;;;13.98;48.37
26487;BME280;14425;56.136;40.360;2022-09-09T08:40:53;100455.91;;;14.09;47.10
26487;BME280;14425;56.136;40.360;2022-09-09T08:43:26;100463.63;;;13.57;47.68
26487;BME280;14425;56.136;40.360;2022-09-09T08:48:41;100454.22;;;13.14;51.54
26487;BME280;14425;56.136;40.360;2022-09-09T08:51:09;100464.31;;;12.84;48.99
26487;BME280;14425;56.136;40.360;2022-09-09T08:53:39;100470.00;;;12.54;50.57
26487;BME280;14425;56.136;40.360;2022-09-09T08:56:14;100476.19;;;12.57;50.70
26487;BME280;14425;56.136;40.360;2022-09-09T08:58:59;100479.66;;;12.79;50.53
26487;BME280;14425;56.136;40.360;2022-09-09T09:01:33;100474.66;;;13.29;49.02
26487;BME280;14425;56.136;40.360;2022-09-09T09:11:49;100470.50;;;13.33;48.89
26487;BME280;14425;56.136;40.360;2022-09-09T09:14:20;100474.94;;;12.91;49.94
26487;BME280;14425;56.136;40.360;2022-09-09T09:16:58;100480.50;;;12.36;50.62
26487;BME280;14425;56.136;40.360;2022-09-09T09:19:25;100487.69;;;11.83;51.26
26487;BME280;14425;56.136;40.360;2022-09-09T09:21:54;100492.00;;;12.02;50.82
26487;BME280;14425;56.136;40.360;2022-09-09T09:24:34;100481.81;;;12.68;50.02
26487;BME280;14425;56.136;40.360;2022-09-09T09:27:14;100474.66;;;14.26;47.46
26487;BME280;14425;56.136;40.360;2022-09-09T09:29:40;100468.94;;;15.18;44.32
26487;BME280;14425;56.136;40.360;2022-09-09T09:32:10;100469.81;;;16.11;44.31
26487;BME280;14425;56.136;40.360;2022-09-09T09:34:37;100469.09;;;17.26;42.26
26487;BME280;14425;56.136;40.360;2022-09-09T09:37:07;100458.44;;;17.15;41.14
26487;BME280;14425;56.136;40.360;2022-09-09T09:39:37;100466.72;;;16.60;41.83
26487;BME280;14425;56.136;40.360;2022-09-09T09:42:15;100457.72;;;17.65;40.59
26487;BME280;14425;56.136;40.360;2022-09-09T09:44:42;100456.66;;;18.50;40.22
26487;BME280;14425;56.136;40.360;2022-09-09T09:47:12;100459.00;;;17.00;39.88
26487;BME280;14425;56.136;40.360;2022-09-09T09:49:38;100465.66;;;15.84;43.00
26487;BME280;14425;56.136;40.360;2022-09-09T09:52:04;100462.25;;;15.26;41.41
26487;BME280;14425;56.136;40.360;2022-09-09T09:54:31;100465.69;;;15.25;43.46
26487;BME280;14425;56.136;40.360;2022-09-09T09:57:08;100456.59;;;16.73;40.02
26487;BME280;14425;56.136;40.360;2022-09-09T09:59:34;100449.72;;;18.52;36.82
26487;BME280;14425;56.136;40.360;2022-09-09T10:04:37;100444.69;;;17.66;37.03
26487;BME280;14425;56.136;40.360;2022-09-09T10:07:11;100453.38;;;18.11;36.51
26487;BME280;14425;56.136;40.360;2022-09-09T10:09:36;100448.16;;;18.63;34.23
26487;BME280;14425;56.136;40.360;2022-09-09T10:12:08;100456.09;;;18.71;36.33
26487;BME280;14425;56.136;40.360;2022-09-09T10:17:08;100459.97;;;18.41;40.70
26487;BME280;14425;56.136;40.360;2022-09-09T10:19:37;100470.63;;;16.43;39.95
26487;BME280;14425;56.136;40.360;2022-09-09T10:40:20;100489.69;;;13.38;47.15
26487;BME280;14425;56.136;40.360;2022-09-09T10:42:51;100483.28;;;13.29;46.25
26487;BME280;14425;56.136;40.360;2022-09-09T10:55:24;100485.66;;;15.26;42.24
26487;BME280;14425;56.136;40.360;2022-09-09T10:57:55;100470.44;;;17.49;39.75
26487;BME280;14425;56.136;40.360;2022-09-09T11:00:23;100461.94;;;17.60;36.21
26487;BME280;14425;56.136;40.360;2022-09-09T11:02:51;100471.69;;;16.51;38.95
26487;BME280;14425;56.136;40.360;2022-09-09T11:05:20;100469.25;;;16.57;38.83
26487;BME280;14425;56.136;40.360;2022-09-09T11:12:43;100491.53;;;14.13;44.21
26487;BME280;14425;56.136;40.360;2022-09-09T11:15:17;100493.56;;;13.97;46.19
26487;BME280;14425;56.136;40.360;2022-09-09T11:17:46;100499.81;;;13.31;45.97
26487;BME280;14425;56.136;40.360;2022-09-09T11:20:14;100497.66;;;12.99;46.57
26487;BME280;14425;56.136;40.360;2022-09-09T11:22:54;100497.41;;;12.92;46.74
26487;BME280;14425;56.136;40.360;2022-09-09T11:25:25;100495.47;;;13.53;45.08
26487;BME280;14425;56.136;40.360;2022-09-09T11:30:25;100486.13;;;14.07;44.28
26487;BME280;14425;56.136;40.360;2022-09-09T11:38:23;100484.19;;;15.07;40.94
26487;BME280;14425;56.136;40.360;2022-09-09T11:41:00;100483.72;;;16.46;40.80
26487;BME280;14425;56.136;40.360;2022-09-09T11:45:57;100476.19;;;16.58;40.10
26487;BME280;14425;56.136;40.360;2022-09-09T11:48:40;100465.63;;;17.69;38.09
26487;BME280;14425;56.136;40.360;2022-09-09T11:51:11;100469.09;;;17.68;37.19
26487;BME280;14425;56.136;40.360;2022-09-09T11:53:48;100468.13;;;16.84;37.92
26487;BME280;14425;56.136;40.360;2022-09-09T11:56:28;100478.81;;;16.58;39.42
26487;BME280;14425;56.136;40.360;2022-09-09T11:59:00;100469.13;;;16.88;39.84
26487;BME280;14425;56.136;40.360;2022-09-09T12:03:55;100490.22;;;15.65;40.99
26487;BME280;14425;56.136;40.360;2022-09-09T12:06:25;100487.22;;;15.21;42.71
26487;BME280;14425;56.136;40.360;2022-09-09T12:08:57;100487.81;;;15.41;43.54
26487;BME280;14425;56.136;40.360;2022-09-09T12:11:29;100469.88;;;16.84;40.48
26487;BME280;14425;56.136;40.360;2022-09-09T12:13:59;100478.59;;;16.14;39.71
26487;BME280;14425;56.136;40.360;2022-09-09T12:16:28;100479.31;;;15.46;41.09
26487;BME280;14425;56.136;40.360;2022-09-09T12:19:03;100488.81;;;16.08;40.64
26487;BME280;14425;56.136;40.360;2022-09-09T12:24:02;100476.91;;;17.68;37.82
26487;BME280;14425;56.136;40.360;2022-09-09T12:31:46;100480.47;;;17.72;36.14
26487;BME280;14425;56.136;40.360;2022-09-09T12:34:17;100479.31;;;18.02;34.36
26487;BME280;14425;56.136;40.360;2022-09-09T12:36:47;100477.84;;;16.90;35.11
26487;BME280;14425;56.136;40.360;2022-09-09T12:39:22;100476.44;;;18.37;36.07
26487;BME280;14425;56.136;40.360;2022-09-09T12:41:52;100484.03;;;16.95;37.19
26487;BME280;14425;56.136;40.360;2022-09-09T12:44:22;100481.94;;;15.48;38.59
26487;BME280;14425;56.136;40.360;2022-09-09T12:46:47;100487.81;;;15.41;40.21
26487;BME280;14425;56.136;40.360;2022-09-09T12:49:24;100478.91;;;16.63;38.19
26487;BME280;14425;56.136;40.360;2022-09-09T12:51:51;100485.06;;;17.02;37.45
26487;BME280;14425;56.136;40.360;2022-09-09T12:54:17;100486.19;;;17.13;38.46
26487;BME280;14425;56.136;40.360;2022-09-09T12:56:45;100481.38;;;18.73;37.00
26487;BME280;14425;56.136;40.360;2022-09-09T12:59:21;100479.47;;;17.24;35.92
26487;BME280;14425;56.136;40.360;2022-09-09T13:01:57;100479.28;;;16.07;36.66
26487;BME280;14425;56.136;40.360;2022-09-09T13:04:22;100490.91;;;15.58;37.04
26487;BME280;14425;56.136;40.360;2022-09-09T13:06:48;100487.97;;;16.07;37.34
26487;BME280;14425;56.136;40.360;2022-09-09T13:09:14;100479.88;;;17.43;35.70
26487;BME280;14425;56.136;40.360;2022-09-09T13:11:40;100480.50;;;18.71;33.18
26487;BME280;14425;56.136;40.360;2022-09-09T13:14:14;100491.78;;;16.20;36.96
26487;BME280;14425;56.136;40.360;2022-09-09T13:16:43;100493.50;;;15.58;38.43
26487;BME280;14425;56.136;40.360;2022-09-09T13:19:18;100487.00;;;16.74;37.57
26487;BME280;14425;56.136;40.360;2022-09-09T13:21:44;100502.13;;;15.57;38.25
26487;BME280;14425;56.136;40.360;2022-09-09T13:26:54;100496.16;;;16.93;38.28
26487;BME280;14425;56.136;40.360;2022-09-09T13:29:21;100483.47;;;16.35;38.34
26487;BME280;14425;56.136;40.360;2022-09-09T13:31:46;100504.56;;;16.13;39.65
26487;BME280;14425;56.136;40.360;2022-09-09T13:34:13;100496.28;;;15.64;38.67
26487;BME280;14425;56.136;40.360;2022-09-09T13:36:39;100503.03;;;15.87;38.99
26487;BME280;14425;56.136;40.360;2022-09-09T13:39:14;100500.50;;;16.92;37.63
26487;BME280;14425;56.136;40.360;2022-09-09T13:41:44;100500.50;;;16.22;37.00
26487;BME280;14425;56.136;40.360;2022-09-09T13:44:20;100494.56;;;16.63;37.44
26487;BME280;14425;56.136;40.360;2022-09-09T13:46:48;100496.03;;;17.26;37.47
26487;BME280;14425;56.136;40.360;2022-09-09T13:49:24;100494.75;;;17.47;36.05
26487;BME280;14425;56.136;40.360;2022-09-09T13:52:02;100494.81;;;16.74;36.33
26487;BME280;14425;56.136;40.360;2022-09-09T13:54:28;100502.97;;;15.56;37.99
26487;BME280;14425;56.136;40.360;2022-09-09T13:56:55;100489.94;;;16.51;37.58
26487;BME280;14425;56.136;40.360;2022-09-09T13:59:21;100488.13;;;17.23;37.11
26487;BME280;14425;56.136;40.360;2022-09-09T14:01:46;100491.06;;;16.62;36.47
26487;BME280;14425;56.136;40.360;2022-09-09T14:04:12;100488.81;;;16.08;38.14
26487;BME280;14425;56.136;40.360;2022-09-09T14:06:38;100486.91;;;15.40;39.23
26487;BME280;14425;56.136;40.360;2022-09-09T14:09:08;100484.50;;;14.36;40.81
26487;BME280;14425;56.136;40.360;2022-09-09T14:11:34;100486.31;;;14.38;40.36
26487;BME280;14425;56.136;40.360;2022-09-09T14:14:00;100485.47;;;14.92;42.23
26487;BME280;14425;56.136;40.360;2022-09-09T14:16:26;100486.00;;;15.38;39.40
26487;BME280;14425;56.136;40.360;2022-09-09T14:18:53;100489.50;;;15.40;39.62
26487;BME280;14425;56.136;40.360;2022-09-09T14:21:21;100488.78;;;15.15;39.50
26487;BME280;14425;56.136;40.360;2022-09-09T14:23:46;100491.84;;;14.48;41.48
26487;BME280;14425;56.136;40.360;2022-09-09T14:26:13;100488.13;;;14.15;42.51
26487;BME280;14425;56.136;40.360;2022-09-09T14:28:38;100492.63;;;13.95;44.04
26487;BME280;14425;56.136;40.360;2022-09-09T14:31:05;100496.78;;;13.90;43.46
26487;BME280;14425;56.136;40.360;2022-09-09T14:33:31;100494.31;;;14.45;41.96
26487;BME280;14425;56.136;40.360;2022-09-09T14:35:58;100487.22;;;15.21;41.72
26487;BME280;14425;56.136;40.360;2022-09-09T14:38:24;100491.31;;;15.12;41.66
26487;BME280;14425;56.136;40.360;2022-09-09T14:40:49;100491.97;;;15.36;42.91
26487;BME280;14425;56.136;40.360;2022-09-09T14:43:15;100493.91;;;15.12;40.94